createdAt,value
2023-05-11T00:01:17.229Z,11.10
2023-05-11T00:03:45.463Z,11.10
2023-05-11T00:06:16.152Z,11.10
2023-05-11T00:08:45.814Z,11.10
2023-05-11T00:11:14.060Z,11.00
2023-05-11T00:13:42.273Z,11.00
2023-05-11T00:16:10.498Z,11.00
2023-05-11T00:18:38.704Z,11.00
2023-05-11T00:21:07.503Z,11.00
2023-05-11T00:23:35.764Z,10.90
2023-05-11T00:26:07.788Z,10.90
2023-05-11T00:28:36.122Z,10.90
2023-05-11T00:31:04.362Z,10.80
2023-05-11T00:33:32.539Z,10.80
2023-05-11T00:36:05.363Z,10.80
2023-05-11T00:38:33.479Z,10.80
2023-05-11T00:41:01.621Z,10.70
2023-05-11T00:43:31.303Z,10.70
2023-05-11T00:45:59.605Z,10.70
2023-05-11T00:48:27.885Z,10.70
2023-05-11T00:50:56.066Z,10.70
2023-05-11T00:53:24.262Z,10.60
2023-05-11T00:55:52.778Z,10.60
2023-05-11T00:58:21.553Z,10.60
2023-05-11T01:00:51.455Z,10.60
2023-05-11T01:03:20.228Z,10.60
2023-05-11T01:05:59.062Z,10.50
2023-05-11T01:08:33.649Z,10.50
2023-05-11T01:11:10.457Z,10.40
2023-05-11T01:13:43.801Z,10.40
2023-05-11T01:16:19.712Z,10.40
2023-05-11T01:18:54.197Z,10.30
2023-05-11T01:21:22.766Z,10.30
2023-05-11T01:24:27.656Z,10.30
2023-05-11T01:27:23.665Z,10.30
2023-05-11T01:30:14.731Z,10.20
2023-05-11T01:32:45.722Z,10.20
2023-05-11T01:35:20.031Z,10.10
2023-05-11T01:37:53.752Z,10.10
2023-05-11T01:40:25.915Z,10.00
2023-05-11T01:43:02.434Z,10.00
2023-05-11T01:45:35.925Z,10.00
2023-05-11T01:48:07.463Z,10.00
2023-05-11T01:50:40.284Z,9.90
2023-05-11T01:53:12.933Z,9.90
2023-05-11T01:55:43.750Z,9.90
2023-05-11T01:58:18.661Z,9.90
2023-05-11T02:00:49.269Z,9.80
2023-05-11T02:03:29.028Z,9.80
2023-05-11T02:06:01.943Z,9.80
2023-05-11T02:08:32.003Z,9.70
2023-05-11T02:11:03.458Z,9.70
2023-05-11T02:13:36.032Z,9.70
2023-05-11T02:16:34.054Z,9.60
2023-05-11T02:19:02.484Z,9.60
2023-05-11T02:21:33.181Z,9.60
2023-05-11T02:24:06.240Z,9.60
2023-05-11T02:26:38.040Z,9.50
2023-05-11T02:29:06.609Z,9.50
2023-05-11T02:31:41.554Z,9.50
2023-05-11T02:34:21.146Z,9.50
2023-05-11T02:36:50.491Z,9.50
2023-05-11T02:39:30.772Z,9.50
2023-05-11T02:42:06.936Z,9.40
2023-05-11T02:44:44.300Z,9.40
2023-05-11T02:47:16.772Z,9.40
2023-05-11T02:49:50.975Z,9.40
2023-05-11T02:52:24.920Z,9.40
2023-05-11T02:54:56.891Z,9.30
2023-05-11T02:57:28.261Z,9.30
2023-05-11T03:00:01.995Z,9.30
2023-05-11T03:02:31.651Z,9.30
2023-05-11T03:05:00.120Z,9.30
2023-05-11T03:07:29.679Z,9.20
2023-05-11T03:10:00.537Z,9.30
2023-05-11T03:12:32.896Z,9.20
2023-05-11T03:15:01.841Z,9.20
2023-05-11T03:17:35.331Z,9.20
2023-05-11T03:20:14.082Z,9.10
2023-05-11T03:22:49.338Z,9.10
2023-05-11T03:25:27.152Z,9.10
2023-05-11T03:28:07.318Z,9.00
2023-05-11T03:30:39.034Z,9.00
2023-05-11T03:33:11.790Z,9.00
2023-05-11T03:35:44.314Z,9.00
2023-05-11T03:38:21.676Z,9.00
2023-05-11T03:40:52.677Z,9.00
2023-05-11T03:43:25.697Z,9.00
2023-05-11T03:46:00.510Z,9.00
2023-05-11T03:48:32.262Z,9.00
2023-05-11T03:51:00.765Z,9.10
2023-05-11T03:53:32.387Z,9.00
2023-05-11T03:56:04.502Z,9.10
2023-05-11T03:58:33.445Z,9.00
2023-05-11T04:01:10.912Z,9.10
2023-05-11T04:03:50.644Z,9.10
2023-05-11T04:06:22.310Z,9.20
2023-05-11T04:09:06.558Z,9.20
2023-05-11T04:11:41.719Z,9.30
2023-05-11T04:14:09.893Z,9.40
2023-05-11T04:16:41.024Z,9.40
2023-05-11T04:19:10.686Z,9.50
2023-05-11T04:21:41.172Z,9.50
2023-05-11T04:24:10.587Z,9.60
2023-05-11T04:26:38.780Z,9.70
2023-05-11T04:29:06.990Z,9.70
2023-05-11T04:31:35.191Z,9.80
2023-05-11T04:34:07.843Z,9.90
2023-05-11T04:36:38.766Z,9.90
2023-05-11T04:39:07.945Z,10.00
2023-05-11T04:41:38.669Z,10.10
2023-05-11T04:44:07.233Z,10.20
2023-05-11T04:46:35.847Z,10.20
2023-05-11T04:49:04.642Z,10.40
2023-05-11T04:51:33.419Z,10.50
2023-05-11T04:54:03.102Z,10.60
2023-05-11T04:56:31.307Z,10.70
2023-05-11T04:59:01.043Z,10.90
2023-05-11T05:01:32.542Z,11.10
2023-05-11T05:04:01.012Z,11.40
2023-05-11T05:06:29.864Z,11.90
2023-05-11T05:08:58.173Z,12.50
2023-05-11T05:11:32.237Z,13.20
2023-05-11T05:14:02.781Z,13.80
2023-05-11T05:16:32.524Z,14.50
2023-05-11T05:19:01.123Z,15.20
2023-05-11T05:21:29.635Z,16.00
2023-05-11T05:24:00.342Z,16.90
2023-05-11T05:26:30.251Z,17.70
2023-05-11T05:28:58.727Z,18.50
2023-05-11T05:31:27.447Z,19.30
2023-05-11T05:33:56.022Z,20.30
2023-05-11T05:36:24.571Z,21.20
2023-05-11T05:38:53.450Z,22.00
2023-05-11T05:41:23.133Z,22.60
2023-05-11T05:43:57.175Z,22.90
2023-05-11T05:46:25.518Z,23.40
2023-05-11T05:48:53.828Z,23.60
2023-05-11T05:51:22.620Z,23.90
2023-05-11T05:53:50.886Z,24.10
2023-05-11T05:56:19.111Z,24.30
2023-05-11T05:58:47.282Z,24.60
2023-05-11T06:01:17.076Z,25.10
2023-05-11T06:03:46.281Z,25.50
2023-05-11T06:06:14.661Z,26.10
2023-05-11T06:08:43.563Z,26.40
2023-05-11T06:11:11.799Z,27.30
2023-05-11T06:13:42.747Z,27.40
2023-05-11T06:16:13.104Z,27.40
2023-05-11T06:18:42.789Z,27.70
2023-05-11T06:21:11.283Z,28.00
2023-05-11T06:23:39.527Z,28.20
2023-05-11T06:26:08.761Z,28.60
2023-05-11T06:28:40.509Z,29.20
2023-05-11T06:31:12.821Z,29.80
2023-05-11T06:33:45.971Z,29.90
2023-05-11T06:36:22.225Z,29.90
2023-05-11T06:38:50.526Z,29.90
2023-05-11T06:41:18.929Z,30.00
2023-05-11T06:43:47.144Z,30.30
2023-05-11T06:46:29.388Z,30.60
2023-05-11T06:48:59.396Z,31.10
2023-05-11T06:51:27.583Z,31.50
2023-05-11T06:53:55.951Z,31.80
2023-05-11T06:56:24.569Z,32.00
2023-05-11T06:58:52.783Z,32.00
2023-05-11T07:01:21.006Z,31.90
2023-05-11T07:03:50.039Z,32.00
2023-05-11T07:06:21.362Z,31.80
2023-05-11T07:08:49.687Z,31.80
2023-05-11T07:11:18.951Z,32.50
2023-05-11T07:13:47.103Z,33.00
2023-05-11T07:16:15.304Z,33.10
2023-05-11T07:18:45.955Z,33.40
2023-05-11T07:21:14.216Z,33.30
2023-05-11T07:23:44.519Z,33.10
2023-05-11T07:26:15.031Z,33.00
2023-05-11T07:28:45.833Z,33.10
2023-05-11T07:31:14.280Z,33.30
2023-05-11T07:33:42.578Z,33.30
2023-05-11T07:36:11.071Z,33.50
2023-05-11T07:38:39.625Z,33.90
2023-05-11T07:41:11.602Z,33.80
2023-05-11T07:43:41.720Z,33.80
2023-05-11T07:46:12.336Z,33.70
2023-05-11T07:48:42.938Z,33.60
2023-05-11T07:51:11.116Z,33.70
2023-05-11T07:53:41.850Z,33.30
2023-05-11T07:56:12.431Z,33.20
2023-05-11T07:58:40.652Z,33.30
2023-05-11T08:01:08.805Z,33.60
2023-05-11T08:03:37.157Z,34.10
2023-05-11T08:06:05.934Z,34.60
2023-05-11T08:08:34.431Z,34.70
2023-05-11T08:11:03.805Z,34.30
2023-05-11T08:13:33.387Z,34.10
2023-05-11T08:16:04.201Z,33.60
2023-05-11T08:18:32.392Z,33.70
2023-05-11T08:21:00.623Z,33.90
2023-05-11T08:23:28.899Z,34.30
2023-05-11T08:25:57.548Z,34.80
2023-05-11T08:28:25.784Z,35.00
2023-05-11T08:30:58.849Z,35.00
2023-05-11T08:36:01.284Z,34.60
2023-05-11T08:38:29.643Z,34.30
2023-05-11T08:40:58.208Z,34.10
2023-05-11T08:43:28.779Z,33.90
2023-05-11T08:46:04.933Z,33.90
2023-05-11T08:48:33.658Z,33.90
2023-05-11T08:51:02.186Z,34.10
2023-05-11T08:53:30.457Z,34.20
2023-05-11T08:56:01.227Z,34.30
2023-05-11T08:58:30.694Z,34.50
2023-05-11T09:01:00.721Z,34.70
2023-05-11T09:03:31.500Z,34.50
2023-05-11T09:06:01.233Z,34.50
2023-05-11T09:08:32.776Z,34.70
2023-05-11T09:11:04.854Z,34.40
2023-05-11T09:13:33.187Z,34.30
2023-05-11T09:16:02.859Z,34.30
2023-05-11T09:18:31.257Z,34.30
2023-05-11T09:21:01.376Z,34.40
2023-05-11T09:23:29.635Z,34.20
2023-05-11T09:25:58.053Z,33.90
2023-05-11T09:28:27.591Z,33.90
2023-05-11T09:30:56.106Z,34.20
2023-05-11T09:33:26.938Z,34.00
2023-05-11T09:35:55.453Z,33.80
2023-05-11T09:38:26.525Z,33.80
2023-05-11T09:40:57.968Z,33.80
2023-05-11T09:43:27.605Z,33.70
2023-05-11T09:45:57.145Z,33.80
2023-05-11T09:48:29.140Z,33.90
2023-05-11T09:51:05.112Z,33.70
2023-05-11T09:53:43.184Z,33.70
2023-05-11T09:56:15.889Z,33.90
2023-05-11T09:58:49.192Z,33.90
2023-05-11T10:01:18.915Z,33.80
2023-05-11T10:04:02.664Z,33.30
2023-05-11T10:06:46.023Z,33.40
2023-05-11T10:09:19.271Z,33.40
2023-05-11T10:11:48.059Z,34.00
2023-05-11T10:14:17.252Z,34.10
2023-05-11T10:16:45.641Z,33.90
2023-05-11T10:19:16.187Z,33.90
2023-05-11T10:21:44.614Z,33.80
2023-05-11T10:24:13.895Z,33.50
2023-05-11T10:26:44.659Z,33.40
2023-05-11T10:29:13.502Z,33.30
2023-05-11T10:31:42.017Z,32.90
2023-05-11T10:34:12.950Z,32.70
2023-05-11T10:36:42.641Z,33.10
2023-05-11T10:39:11.362Z,32.90
2023-05-11T10:41:51.822Z,32.80
2023-05-11T10:44:33.845Z,32.70
2023-05-11T10:47:22.097Z,32.40
2023-05-11T10:50:22.183Z,32.10
2023-05-11T10:53:13.391Z,31.90
2023-05-11T10:56:00.323Z,31.40
2023-05-11T10:58:42.401Z,30.80
2023-05-11T11:01:37.533Z,30.50
2023-05-11T11:04:09.703Z,30.30
2023-05-11T11:06:43.151Z,30.10
2023-05-11T11:09:14.658Z,29.80
2023-05-11T11:11:46.138Z,29.30
2023-05-11T11:14:16.072Z,29.30
2023-05-11T11:17:27.540Z,29.00
2023-05-11T11:19:56.114Z,28.70
2023-05-11T11:22:47.612Z,28.40
2023-05-11T11:25:17.536Z,27.90
2023-05-11T11:28:00.040Z,27.60
2023-05-11T11:30:30.806Z,27.40
2023-05-11T11:33:34.815Z,27.00
2023-05-11T11:36:03.318Z,26.70
2023-05-11T11:38:34.060Z,26.60
2023-05-11T11:41:03.569Z,26.60
2023-05-11T11:43:46.132Z,26.50
2023-05-11T11:46:28.049Z,26.10
2023-05-11T11:49:10.068Z,25.90
2023-05-11T11:51:41.773Z,25.70
2023-05-11T11:54:10.326Z,25.60
2023-05-11T11:56:45.114Z,25.40
2023-05-11T11:59:15.521Z,25.30
2023-05-11T12:01:48.133Z,25.00
2023-05-11T12:04:47.545Z,24.70
2023-05-11T12:07:17.057Z,24.40
2023-05-11T12:09:47.148Z,24.10
2023-05-11T12:12:19.813Z,24.00
2023-05-11T12:14:50.012Z,23.90
2023-05-11T12:17:26.144Z,23.90
2023-05-11T12:19:56.301Z,23.70
2023-05-11T12:22:24.779Z,23.50
2023-05-11T12:24:57.245Z,23.50
2023-05-11T12:27:27.340Z,23.40
2023-05-11T12:30:00.279Z,23.30
2023-05-11T12:32:31.863Z,23.30
2023-05-11T12:35:04.362Z,23.20
2023-05-11T12:37:33.163Z,23.10
2023-05-11T12:40:01.627Z,23.10
2023-05-11T12:42:35.297Z,23.10
2023-05-11T12:45:04.193Z,23.00
2023-05-11T12:47:36.942Z,23.00
2023-05-11T12:50:08.568Z,23.00
2023-05-11T12:52:37.087Z,23.00
2023-05-11T12:55:05.977Z,23.00
2023-05-11T12:57:34.224Z,22.90
2023-05-11T13:00:13.852Z,22.80
2023-05-11T13:02:46.236Z,22.70
2023-05-11T13:05:21.112Z,22.50
2023-05-11T13:07:49.851Z,22.40
2023-05-11T13:10:24.962Z,22.40
2023-05-11T13:12:53.726Z,22.30
2023-05-11T13:15:23.596Z,22.20
2023-05-11T13:17:58.454Z,22.20
2023-05-11T13:20:30.120Z,22.10
2023-05-11T13:23:09.303Z,22.00
2023-05-11T13:25:54.133Z,21.90
2023-05-11T13:28:24.199Z,21.80
2023-05-11T13:30:53.279Z,21.80
2023-05-11T13:33:21.502Z,21.80
2023-05-11T13:35:51.132Z,21.70
2023-05-11T13:38:19.337Z,21.70
2023-05-11T13:40:47.618Z,21.60
2023-05-11T13:43:15.874Z,21.70
2023-05-11T13:45:44.099Z,21.70
2023-05-11T13:48:12.306Z,21.70
2023-05-11T13:50:40.788Z,21.60
2023-05-11T13:53:11.632Z,21.60
2023-05-11T13:55:42.604Z,21.50
2023-05-11T13:58:11.264Z,21.60
2023-05-11T14:00:40.204Z,21.50
2023-05-11T14:03:08.610Z,21.50
2023-05-11T14:05:39.260Z,21.50
2023-05-11T14:08:07.826Z,21.50
2023-05-11T14:10:37.364Z,21.40
2023-05-11T14:13:06.457Z,21.50
2023-05-11T14:15:38.495Z,21.30
2023-05-11T14:18:08.122Z,21.20
2023-05-11T14:20:38.651Z,21.30
2023-05-11T14:23:07.022Z,21.40
2023-05-11T14:25:39.009Z,21.40
2023-05-11T14:28:07.441Z,21.40
2023-05-11T14:30:37.930Z,21.30
2023-05-11T14:33:06.333Z,21.20
2023-05-11T14:35:34.552Z,21.30
2023-05-11T14:38:04.562Z,21.30
2023-05-11T14:40:32.862Z,21.30
2023-05-11T14:43:02.651Z,21.30
2023-05-11T14:45:30.985Z,21.20
2023-05-11T14:47:59.188Z,21.30
2023-05-11T14:50:27.642Z,21.30
2023-05-11T14:52:55.871Z,21.30
2023-05-11T14:55:24.119Z,21.30
2023-05-11T14:57:52.370Z,21.20
2023-05-11T15:00:22.527Z,21.20
2023-05-11T15:02:50.921Z,21.20
2023-05-11T15:05:21.253Z,21.20
2023-05-11T15:07:49.654Z,21.10
2023-05-11T15:10:17.932Z,21.10
2023-05-11T15:12:46.877Z,21.10
2023-05-11T15:15:15.010Z,21.00
2023-05-11T15:17:44.635Z,21.10
2023-05-11T15:20:13.137Z,21.10
2023-05-11T15:22:41.332Z,21.10
2023-05-11T15:25:10.448Z,21.10
2023-05-11T15:27:38.605Z,21.10
2023-05-11T15:30:10.262Z,21.00
2023-05-11T15:32:39.003Z,21.00
2023-05-11T15:35:09.544Z,21.00
2023-05-11T15:37:37.689Z,20.90
2023-05-11T15:40:08.537Z,20.80
2023-05-11T15:42:36.802Z,20.80
2023-05-11T15:45:06.305Z,20.80
2023-05-11T15:47:34.702Z,20.80
2023-05-11T15:50:02.970Z,20.80
2023-05-11T15:52:32.599Z,20.80
2023-05-11T15:55:06.529Z,20.80
2023-05-11T15:57:34.795Z,20.80
2023-05-11T16:00:04.270Z,20.80
2023-05-11T16:02:36.064Z,20.80
2023-05-11T16:05:04.563Z,20.80
2023-05-11T16:07:34.282Z,20.90
2023-05-11T16:10:05.219Z,20.90
2023-05-11T16:12:33.486Z,20.90
2023-05-11T16:15:01.798Z,20.80
2023-05-11T16:17:30.096Z,20.70
2023-05-11T16:20:00.490Z,20.60
2023-05-11T16:22:28.838Z,20.50
2023-05-11T16:24:58.757Z,20.60
2023-05-11T16:27:26.921Z,20.60
2023-05-11T16:29:55.199Z,20.60
2023-05-11T16:32:23.412Z,20.50
2023-05-11T16:34:51.650Z,20.40
2023-05-11T16:37:19.951Z,20.30
2023-05-11T16:39:48.204Z,20.20
2023-05-11T16:42:18.570Z,20.20
2023-05-11T16:44:50.096Z,20.10
2023-05-11T16:47:18.432Z,20.10
2023-05-11T16:49:46.868Z,20.00
2023-05-11T16:52:14.969Z,20.00
2023-05-11T16:54:46.537Z,19.90
2023-05-11T16:57:14.712Z,19.80
2023-05-11T16:59:44.240Z,19.80
2023-05-11T17:02:14.690Z,19.70
2023-05-11T17:04:42.931Z,19.60
2023-05-11T17:07:11.687Z,19.50
2023-05-11T17:09:39.946Z,19.40
2023-05-11T17:12:10.249Z,19.40
2023-05-11T17:14:41.001Z,19.30
2023-05-11T17:17:10.545Z,19.30
2023-05-11T17:19:38.652Z,19.20
2023-05-11T17:22:07.054Z,19.10
2023-05-11T17:24:35.345Z,19.00
2023-05-11T17:27:07.031Z,19.00
2023-05-11T17:29:35.264Z,18.90
2023-05-11T17:32:03.667Z,18.80
2023-05-11T17:34:33.423Z,18.80
2023-05-11T17:37:01.660Z,18.70
2023-05-11T17:39:32.303Z,18.60
2023-05-11T17:42:00.461Z,18.50
2023-05-11T17:44:28.739Z,18.50
2023-05-11T17:46:56.951Z,18.40
2023-05-11T17:49:25.384Z,18.40
2023-05-11T17:51:54.895Z,18.30
2023-05-11T17:54:23.061Z,18.30
2023-05-11T17:56:51.549Z,18.30
2023-05-11T17:59:21.027Z,18.20
2023-05-11T18:01:49.446Z,18.20
2023-05-11T18:04:17.835Z,18.20
2023-05-11T18:06:48.296Z,18.10
2023-05-11T18:09:18.879Z,18.00
2023-05-11T18:11:47.198Z,17.90
2023-05-11T18:14:16.654Z,17.90
2023-05-11T18:16:44.927Z,17.80
2023-05-11T18:19:13.155Z,17.80
2023-05-11T18:21:41.562Z,17.70
2023-05-11T18:24:10.649Z,17.60
2023-05-11T18:26:42.928Z,17.60
2023-05-11T18:29:11.188Z,17.50
2023-05-11T18:31:39.422Z,17.50
2023-05-11T18:34:07.711Z,17.40
2023-05-11T18:36:38.811Z,17.40
2023-05-11T18:39:07.032Z,17.30
2023-05-11T18:41:35.484Z,17.20
2023-05-11T18:44:05.160Z,17.10
2023-05-11T18:46:33.326Z,17.10
2023-05-11T18:49:01.528Z,17.00
2023-05-11T18:51:30.130Z,16.90
2023-05-11T18:54:01.247Z,16.90
2023-05-11T18:56:29.849Z,16.70
2023-05-11T18:58:58.016Z,16.60
2023-05-11T19:01:40.158Z,16.60
2023-05-11T19:04:19.623Z,16.50
2023-05-11T19:06:48.093Z,16.50
2023-05-11T19:09:16.406Z,16.40
2023-05-11T19:11:44.728Z,16.40
2023-05-11T19:14:14.763Z,16.30
2023-05-11T19:16:46.755Z,16.30
2023-05-11T19:19:15.012Z,16.20
2023-05-11T19:21:44.747Z,16.20
2023-05-11T19:24:14.331Z,16.10
2023-05-11T19:26:52.254Z,16.10
2023-05-11T19:29:27.016Z,16.00
2023-05-11T19:31:56.699Z,15.90
2023-05-11T19:34:24.933Z,15.90
2023-05-11T19:36:56.710Z,15.90
2023-05-11T19:39:28.776Z,15.80
2023-05-11T19:42:00.351Z,15.70
2023-05-11T19:44:32.870Z,15.70
2023-05-11T19:47:02.404Z,15.60
2023-05-11T19:49:30.543Z,15.60
2023-05-11T19:51:59.058Z,15.50
2023-05-11T19:54:27.446Z,15.50
2023-05-11T19:56:56.151Z,15.50
2023-05-11T19:59:27.502Z,15.40
2023-05-11T20:01:55.873Z,15.40
2023-05-11T20:04:25.657Z,15.40
2023-05-11T20:06:53.812Z,15.30
2023-05-11T20:09:22.001Z,15.30
2023-05-11T20:11:50.227Z,15.30
2023-05-11T20:14:18.507Z,15.20
2023-05-11T20:16:46.723Z,15.20
2023-05-11T20:19:14.833Z,15.10
2023-05-11T20:21:44.513Z,15.10
2023-05-11T20:24:12.751Z,15.10
2023-05-11T20:26:41.234Z,15.00
2023-05-11T20:29:10.433Z,15.00
2023-05-11T20:31:41.032Z,14.90
2023-05-11T20:34:09.238Z,15.00
2023-05-11T20:36:37.540Z,15.00
2023-05-11T20:39:07.263Z,15.00
2023-05-11T20:41:35.909Z,14.90
2023-05-11T20:44:04.163Z,14.90
2023-05-11T20:46:32.391Z,14.80
2023-05-11T20:49:00.540Z,14.80
2023-05-11T20:51:28.750Z,14.80
2023-05-11T20:53:57.164Z,14.70
2023-05-11T20:56:27.120Z,14.70
2023-05-11T20:58:55.288Z,14.70
2023-05-11T21:01:23.919Z,14.60
2023-05-11T21:03:54.425Z,14.60
2023-05-11T21:06:22.768Z,14.60
2023-05-11T21:08:51.234Z,14.60
2023-05-11T21:11:19.498Z,14.60
2023-05-11T21:13:49.586Z,14.60
2023-05-11T21:16:18.376Z,14.60
2023-05-11T21:18:46.589Z,14.60
2023-05-11T21:21:14.821Z,14.50
2023-05-11T21:23:46.330Z,14.50
2023-05-11T21:26:14.557Z,14.40
2023-05-11T21:28:42.705Z,14.40
2023-05-11T21:31:12.495Z,14.40
2023-05-11T21:33:41.343Z,14.40
2023-05-11T21:36:09.816Z,14.40
2023-05-11T21:38:38.271Z,14.30
2023-05-11T21:41:06.562Z,14.30
2023-05-11T21:43:37.931Z,14.30
2023-05-11T21:46:08.713Z,14.30
2023-05-11T21:48:38.339Z,14.20
2023-05-11T21:51:06.740Z,14.20
2023-05-11T21:53:35.069Z,14.20
2023-05-11T21:56:05.932Z,14.10
2023-05-11T21:58:34.090Z,14.10
2023-05-11T22:01:02.638Z,14.10
2023-05-11T22:03:31.768Z,14.10
2023-05-11T22:06:01.458Z,14.10
2023-05-11T22:08:29.939Z,14.00
2023-05-11T22:10:58.238Z,14.00
2023-05-11T22:13:27.142Z,13.90
2023-05-11T22:15:55.399Z,13.90
2023-05-11T22:18:23.658Z,13.90
2023-05-11T22:20:51.849Z,13.80
2023-05-11T22:23:21.548Z,13.80
2023-05-11T22:25:49.691Z,13.70
2023-05-11T22:28:18.002Z,13.60
2023-05-11T22:30:46.258Z,13.60
2023-05-11T22:33:14.434Z,13.60
2023-05-11T22:35:42.805Z,13.60
2023-05-11T22:38:11.428Z,13.60
2023-05-11T22:40:41.271Z,13.50
2023-05-11T22:43:09.599Z,13.50
2023-05-11T22:45:38.196Z,13.50
2023-05-11T22:48:07.633Z,13.50
2023-05-11T22:50:35.891Z,13.40
2023-05-11T22:53:04.553Z,13.40
2023-05-11T22:55:32.779Z,13.40
2023-05-11T22:58:02.316Z,13.30
2023-05-11T23:00:30.730Z,13.30
2023-05-11T23:02:59.181Z,13.30
2023-05-11T23:05:27.502Z,13.20
2023-05-11T23:07:57.995Z,13.10
2023-05-11T23:10:26.631Z,13.10
2023-05-11T23:12:54.743Z,13.10
2023-05-11T23:15:24.406Z,13.10
2023-05-11T23:17:52.598Z,13.00
2023-05-11T23:20:20.927Z,13.00
2023-05-11T23:22:49.416Z,12.90
2023-05-11T23:25:18.196Z,12.80
2023-05-11T23:27:46.377Z,12.80
2023-05-11T23:30:14.944Z,12.70
2023-05-11T23:32:47.148Z,12.70
2023-05-11T23:35:15.807Z,12.70
2023-05-11T23:37:43.994Z,12.60
2023-05-11T23:40:12.811Z,12.60
2023-05-11T23:42:40.927Z,12.60
2023-05-11T23:45:10.035Z,12.60
2023-05-11T23:47:38.434Z,12.60
2023-05-11T23:50:10.035Z,12.60
2023-05-11T23:52:38.442Z,12.50
2023-05-11T23:55:07.726Z,12.50
2023-05-11T23:57:35.899Z,12.40
